sensor_id;sensor_type;location;lat;lon;timestamp;P1;durP1;ratioP1;P2;durP2;ratioP2
30934;SDS011;51033;42.648;23.292;2022-09-09T00:00:16;9.77;;;7.50;;
30934;SDS011;51033;42.648;23.292;2022-09-09T00:02:47;7.45;;;6.22;;
30934;SDS011;51033;42.648;23.292;2022-09-09T00:07:52;9.27;;;6.70;;
30934;SDS011;51033;42.648;23.292;2022-09-09T00:15:25;6.72;;;5.18;;
30934;SDS011;51033;42.648;23.292;2022-09-09T00:21:14;7.50;;;5.32;;
30934;SDS011;51033;42.648;23.292;2022-09-09T00:23:53;6.10;;;5.03;;
30934;SDS011;51033;42.648;23.292;2022-09-09T00:28:59;9.15;;;6.05;;
30934;SDS011;51033;42.648;23.292;2022-09-09T00:31:29;11.40;;;6.97;;
30934;SDS011;51033;42.648;23.292;2022-09-09T00:34:02;10.15;;;6.13;;
30934;SDS011;51033;42.648;23.292;2022-09-09T00:36:36;8.70;;;6.45;;
30934;SDS011;51033;42.648;23.292;2022-09-09T00:39:03;9.95;;;6.93;;
30934;SDS011;51033;42.648;23.292;2022-09-09T00:46:50;8.43;;;6.32;;
30934;SDS011;51033;42.648;23.292;2022-09-09T01:02:54;9.73;;;6.85;;
30934;SDS011;51033;42.648;23.292;2022-09-09T01:11:01;10.13;;;7.07;;
30934;SDS011;51033;42.648;23.292;2022-09-09T01:13:34;9.13;;;6.38;;
30934;SDS011;51033;42.648;23.292;2022-09-09T01:16:04;8.13;;;6.50;;
30934;SDS011;51033;42.648;23.292;2022-09-09T01:18:33;10.00;;;7.15;;
30934;SDS011;51033;42.648;23.292;2022-09-09T01:23:57;8.27;;;7.05;;
30934;SDS011;51033;42.648;23.292;2022-09-09T01:26:39;9.40;;;5.85;;
30934;SDS011;51033;42.648;23.292;2022-09-09T01:29:08;9.68;;;6.75;;
30934;SDS011;51033;42.648;23.292;2022-09-09T01:31:37;11.10;;;6.93;;
30934;SDS011;51033;42.648;23.292;2022-09-09T01:34:11;13.50;;;6.97;;
30934;SDS011;51033;42.648;23.292;2022-09-09T01:36:40;7.97;;;6.18;;
30934;SDS011;51033;42.648;23.292;2022-09-09T01:39:09;7.20;;;6.30;;
30934;SDS011;51033;42.648;23.292;2022-09-09T01:41:35;9.15;;;7.18;;
30934;SDS011;51033;42.648;23.292;2022-09-09T01:44:01;8.68;;;6.43;;
30934;SDS011;51033;42.648;23.292;2022-09-09T01:46:27;8.23;;;6.40;;
30934;SDS011;51033;42.648;23.292;2022-09-09T01:48:54;7.68;;;6.15;;
30934;SDS011;51033;42.648;23.292;2022-09-09T01:51:20;8.85;;;6.78;;
30934;SDS011;51033;42.648;23.292;2022-09-09T01:53:46;9.27;;;6.78;;
30934;SDS011;51033;42.648;23.292;2022-09-09T02:04:11;11.73;;;6.15;;
30934;SDS011;51033;42.648;23.292;2022-09-09T02:06:49;10.10;;;6.72;;
30934;SDS011;51033;42.648;23.292;2022-09-09T02:09:19;7.90;;;6.20;;
30934;SDS011;51033;42.648;23.292;2022-09-09T02:11:47;10.90;;;6.25;;
30934;SDS011;51033;42.648;23.292;2022-09-09T02:14:24;11.70;;;7.82;;
30934;SDS011;51033;42.648;23.292;2022-09-09T02:17:01;8.15;;;6.57;;
30934;SDS011;51033;42.648;23.292;2022-09-09T02:19:32;8.98;;;6.90;;
30934;SDS011;51033;42.648;23.292;2022-09-09T02:22:04;15.48;;;7.78;;
30934;SDS011;51033;42.648;23.292;2022-09-09T02:24:30;12.40;;;8.18;;
30934;SDS011;51033;42.648;23.292;2022-09-09T02:26:59;12.30;;;7.90;;
30934;SDS011;51033;42.648;23.292;2022-09-09T02:29:33;12.75;;;7.55;;
30934;SDS011;51033;42.648;23.292;2022-09-09T02:32:03;12.98;;;6.95;;
30934;SDS011;51033;42.648;23.292;2022-09-09T02:34:31;11.75;;;7.20;;
30934;SDS011;51033;42.648;23.292;2022-09-09T02:37:01;9.23;;;6.97;;
30934;SDS011;51033;42.648;23.292;2022-09-09T02:39:29;9.30;;;7.15;;
30934;SDS011;51033;42.648;23.292;2022-09-09T02:41:54;10.48;;;7.43;;
30934;SDS011;51033;42.648;23.292;2022-09-09T02:44:19;11.80;;;7.13;;
30934;SDS011;51033;42.648;23.292;2022-09-09T02:49:44;9.80;;;6.60;;
30934;SDS011;51033;42.648;23.292;2022-09-09T02:58:18;11.68;;;6.75;;
30934;SDS011;51033;42.648;23.292;2022-09-09T03:00:47;7.63;;;6.68;;
30934;SDS011;51033;42.648;23.292;2022-09-09T03:03:14;8.90;;;6.15;;
30934;SDS011;51033;42.648;23.292;2022-09-09T03:05:44;8.00;;;6.15;;
30934;SDS011;51033;42.648;23.292;2022-09-09T03:08:11;7.00;;;6.28;;
30934;SDS011;51033;42.648;23.292;2022-09-09T03:10:37;11.70;;;8.15;;
30934;SDS011;51033;42.648;23.292;2022-09-09T03:13:04;7.50;;;6.53;;
30934;SDS011;51033;42.648;23.292;2022-09-09T03:15:30;13.23;;;7.10;;
30934;SDS011;51033;42.648;23.292;2022-09-09T03:17:57;7.75;;;6.88;;
30934;SDS011;51033;42.648;23.292;2022-09-09T03:20:24;8.68;;;6.18;;
30934;SDS011;51033;42.648;23.292;2022-09-09T03:22:54;9.23;;;6.57;;
30934;SDS011;51033;42.648;23.292;2022-09-09T03:25:20;12.23;;;7.05;;
30934;SDS011;51033;42.648;23.292;2022-09-09T03:27:49;6.75;;;6.03;;
30934;SDS011;51033;42.648;23.292;2022-09-09T03:30:15;9.90;;;6.35;;
30934;SDS011;51033;42.648;23.292;2022-09-09T03:32:41;10.70;;;6.90;;
30934;SDS011;51033;42.648;23.292;2022-09-09T03:35:06;8.98;;;6.95;;
30934;SDS011;51033;42.648;23.292;2022-09-09T03:37:33;11.80;;;8.48;;
30934;SDS011;51033;42.648;23.292;2022-09-09T03:39:58;10.73;;;6.78;;
30934;SDS011;51033;42.648;23.292;2022-09-09T03:42:24;9.45;;;6.22;;
30934;SDS011;51033;42.648;23.292;2022-09-09T03:44:50;8.15;;;5.32;;
30934;SDS011;51033;42.648;23.292;2022-09-09T03:47:17;10.88;;;6.32;;
30934;SDS011;51033;42.648;23.292;2022-09-09T03:49:43;7.88;;;6.97;;
30934;SDS011;51033;42.648;23.292;2022-09-09T03:52:09;11.65;;;6.63;;
30934;SDS011;51033;42.648;23.292;2022-09-09T03:54:35;7.95;;;6.22;;
30934;SDS011;51033;42.648;23.292;2022-09-09T03:57:00;9.93;;;6.30;;
30934;SDS011;51033;42.648;23.292;2022-09-09T03:59:27;9.43;;;6.50;;
30934;SDS011;51033;42.648;23.292;2022-09-09T04:01:53;8.05;;;5.85;;
30934;SDS011;51033;42.648;23.292;2022-09-09T04:04:18;9.40;;;7.05;;
30934;SDS011;51033;42.648;23.292;2022-09-09T04:06:45;8.88;;;6.28;;
30934;SDS011;51033;42.648;23.292;2022-09-09T04:09:11;9.55;;;6.38;;
30934;SDS011;51033;42.648;23.292;2022-09-09T04:11:36;7.63;;;6.75;;
30934;SDS011;51033;42.648;23.292;2022-09-09T04:14:02;7.18;;;5.78;;
30934;SDS011;51033;42.648;23.292;2022-09-09T04:16:29;7.57;;;6.25;;
30934;SDS011;51033;42.648;23.292;2022-09-09T04:18:54;6.65;;;5.70;;
30934;SDS011;51033;42.648;23.292;2022-09-09T04:21:21;7.88;;;5.38;;
30934;SDS011;51033;42.648;23.292;2022-09-09T04:23:46;8.65;;;6.53;;
30934;SDS011;51033;42.648;23.292;2022-09-09T04:26:11;7.50;;;6.57;;
30934;SDS011;51033;42.648;23.292;2022-09-09T04:28:37;10.57;;;6.35;;
30934;SDS011;51033;42.648;23.292;2022-09-09T04:31:07;33.80;;;9.05;;
30934;SDS011;51033;42.648;23.292;2022-09-09T04:33:34;10.25;;;6.72;;
30934;SDS011;51033;42.648;23.292;2022-09-09T04:36:00;16.75;;;6.57;;
30934;SDS011;51033;42.648;23.292;2022-09-09T04:38:26;13.75;;;6.78;;
30934;SDS011;51033;42.648;23.292;2022-09-09T04:40:51;8.20;;;6.95;;
30934;SDS011;51033;42.648;23.292;2022-09-09T04:43:18;8.77;;;7.88;;
30934;SDS011;51033;42.648;23.292;2022-09-09T04:45:46;8.23;;;7.20;;
30934;SDS011;51033;42.648;23.292;2022-09-09T04:48:13;8.05;;;6.90;;
30934;SDS011;51033;42.648;23.292;2022-09-09T04:50:39;14.05;;;7.60;;
30934;SDS011;51033;42.648;23.292;2022-09-09T04:53:06;9.65;;;7.05;;
30934;SDS011;51033;42.648;23.292;2022-09-09T04:55:32;12.23;;;7.47;;
30934;SDS011;51033;42.648;23.292;2022-09-09T04:58:06;14.18;;;8.27;;
30934;SDS011;51033;42.648;23.292;2022-09-09T05:00:33;10.52;;;8.25;;
30934;SDS011;51033;42.648;23.292;2022-09-09T05:03:03;8.05;;;7.25;;
30934;SDS011;51033;42.648;23.292;2022-09-09T05:05:30;11.18;;;7.90;;
30934;SDS011;51033;42.648;23.292;2022-09-09T05:08:03;9.82;;;7.95;;
30934;SDS011;51033;42.648;23.292;2022-09-09T05:10:31;13.00;;;8.63;;
30934;SDS011;51033;42.648;23.292;2022-09-09T05:12:57;14.18;;;7.45;;
30934;SDS011;51033;42.648;23.292;2022-09-09T05:15:22;9.35;;;7.78;;
30934;SDS011;51033;42.648;23.292;2022-09-09T05:17:48;9.90;;;8.30;;
30934;SDS011;51033;42.648;23.292;2022-09-09T05:20:13;11.13;;;8.85;;
30934;SDS011;51033;42.648;23.292;2022-09-09T05:22:39;9.75;;;8.77;;
30934;SDS011;51033;42.648;23.292;2022-09-09T05:25:05;9.25;;;8.20;;
30934;SDS011;51033;42.648;23.292;2022-09-09T05:27:31;11.30;;;8.27;;
30934;SDS011;51033;42.648;23.292;2022-09-09T05:29:59;9.95;;;8.15;;
30934;SDS011;51033;42.648;23.292;2022-09-09T05:32:24;9.45;;;8.55;;
30934;SDS011;51033;42.648;23.292;2022-09-09T05:34:50;11.40;;;8.65;;
30934;SDS011;51033;42.648;23.292;2022-09-09T05:37:16;12.18;;;9.48;;
30934;SDS011;51033;42.648;23.292;2022-09-09T05:39:41;10.50;;;9.35;;
30934;SDS011;51033;42.648;23.292;2022-09-09T05:42:07;12.27;;;9.35;;
30934;SDS011;51033;42.648;23.292;2022-09-09T05:44:33;12.85;;;10.15;;
30934;SDS011;51033;42.648;23.292;2022-09-09T05:46:58;14.63;;;10.35;;
30934;SDS011;51033;42.648;23.292;2022-09-09T05:49:23;12.55;;;10.30;;
30934;SDS011;51033;42.648;23.292;2022-09-09T05:51:49;13.55;;;10.23;;
30934;SDS011;51033;42.648;23.292;2022-09-09T05:54:15;15.02;;;10.43;;
30934;SDS011;51033;42.648;23.292;2022-09-09T05:56:41;13.10;;;9.20;;
30934;SDS011;51033;42.648;23.292;2022-09-09T05:59:07;12.40;;;8.38;;
30934;SDS011;51033;42.648;23.292;2022-09-09T06:01:34;15.88;;;10.07;;
30934;SDS011;51033;42.648;23.292;2022-09-09T06:04:01;11.27;;;9.25;;
30934;SDS011;51033;42.648;23.292;2022-09-09T06:06:30;11.73;;;8.95;;
30934;SDS011;51033;42.648;23.292;2022-09-09T06:09:01;10.90;;;8.20;;
30934;SDS011;51033;42.648;23.292;2022-09-09T06:11:28;12.85;;;9.27;;
30934;SDS011;51033;42.648;23.292;2022-09-09T06:13:56;12.75;;;9.05;;
30934;SDS011;51033;42.648;23.292;2022-09-09T06:16:23;10.77;;;9.18;;
30934;SDS011;51033;42.648;23.292;2022-09-09T06:18:50;9.35;;;7.05;;
30934;SDS011;51033;42.648;23.292;2022-09-09T06:21:20;14.57;;;8.40;;
30934;SDS011;51033;42.648;23.292;2022-09-09T06:23:47;12.00;;;8.75;;
30934;SDS011;51033;42.648;23.292;2022-09-09T06:26:14;11.70;;;8.00;;
30934;SDS011;51033;42.648;23.292;2022-09-09T06:28:47;9.93;;;8.18;;
30934;SDS011;51033;42.648;23.292;2022-09-09T06:31:15;14.23;;;10.65;;
30934;SDS011;51033;42.648;23.292;2022-09-09T06:33:48;12.60;;;8.53;;
30934;SDS011;51033;42.648;23.292;2022-09-09T06:38:51;9.68;;;8.13;;
30934;SDS011;51033;42.648;23.292;2022-09-09T06:41:17;12.02;;;8.63;;
30934;SDS011;51033;42.648;23.292;2022-09-09T06:43:44;14.05;;;8.45;;
30934;SDS011;51033;42.648;23.292;2022-09-09T06:46:11;13.73;;;8.90;;
30934;SDS011;51033;42.648;23.292;2022-09-09T06:48:39;10.13;;;7.80;;
30934;SDS011;51033;42.648;23.292;2022-09-09T06:51:07;9.45;;;7.90;;
30934;SDS011;51033;42.648;23.292;2022-09-09T06:53:34;20.63;;;8.57;;
30934;SDS011;51033;42.648;23.292;2022-09-09T06:58:39;11.65;;;8.35;;
30934;SDS011;51033;42.648;23.292;2022-09-09T07:01:08;13.02;;;9.32;;
30934;SDS011;51033;42.648;23.292;2022-09-09T07:03:35;12.18;;;8.10;;
30934;SDS011;51033;42.648;23.292;2022-09-09T07:06:00;10.38;;;8.35;;
30934;SDS011;51033;42.648;23.292;2022-09-09T07:08:26;13.52;;;9.15;;
30934;SDS011;51033;42.648;23.292;2022-09-09T07:10:53;11.35;;;10.13;;
30934;SDS011;51033;42.648;23.292;2022-09-09T07:13:23;13.95;;;9.05;;
30934;SDS011;51033;42.648;23.292;2022-09-09T07:15:50;11.82;;;9.25;;
30934;SDS011;51033;42.648;23.292;2022-09-09T07:18:16;10.57;;;8.75;;
30934;SDS011;51033;42.648;23.292;2022-09-09T07:20:41;10.23;;;8.90;;
30934;SDS011;51033;42.648;23.292;2022-09-09T07:23:17;14.25;;;9.50;;
30934;SDS011;51033;42.648;23.292;2022-09-09T07:25:45;10.25;;;9.02;;
30934;SDS011;51033;42.648;23.292;2022-09-09T07:28:12;11.32;;;8.73;;
30934;SDS011;51033;42.648;23.292;2022-09-09T07:30:38;10.43;;;8.93;;
30934;SDS011;51033;42.648;23.292;2022-09-09T07:33:04;9.45;;;7.80;;
30934;SDS011;51033;42.648;23.292;2022-09-09T07:35:29;12.15;;;8.05;;
30934;SDS011;51033;42.648;23.292;2022-09-09T07:37:55;9.63;;;7.78;;
30934;SDS011;51033;42.648;23.292;2022-09-09T07:40:21;16.20;;;8.00;;
30934;SDS011;51033;42.648;23.292;2022-09-09T07:42:47;9.90;;;7.75;;
30934;SDS011;51033;42.648;23.292;2022-09-09T07:45:13;10.90;;;7.50;;
30934;SDS011;51033;42.648;23.292;2022-09-09T07:47:39;10.77;;;7.68;;
30934;SDS011;51033;42.648;23.292;2022-09-09T07:50:07;9.18;;;7.20;;
30934;SDS011;51033;42.648;23.292;2022-09-09T07:52:34;17.83;;;8.13;;
30934;SDS011;51033;42.648;23.292;2022-09-09T07:54:59;12.18;;;7.28;;
30934;SDS011;51033;42.648;23.292;2022-09-09T07:57:27;9.88;;;7.05;;
30934;SDS011;51033;42.648;23.292;2022-09-09T07:59:55;11.85;;;7.18;;
30934;SDS011;51033;42.648;23.292;2022-09-09T08:02:21;9.20;;;7.55;;
30934;SDS011;51033;42.648;23.292;2022-09-09T08:04:48;11.55;;;7.70;;
30934;SDS011;51033;42.648;23.292;2022-09-09T08:07:13;9.60;;;7.28;;
30934;SDS011;51033;42.648;23.292;2022-09-09T08:09:39;8.13;;;6.47;;
30934;SDS011;51033;42.648;23.292;2022-09-09T08:12:04;8.57;;;6.78;;
30934;SDS011;51033;42.648;23.292;2022-09-09T08:14:31;8.65;;;6.78;;
30934;SDS011;51033;42.648;23.292;2022-09-09T08:16:57;9.15;;;6.30;;
30934;SDS011;51033;42.648;23.292;2022-09-09T08:19:23;12.50;;;6.53;;
30934;SDS011;51033;42.648;23.292;2022-09-09T08:21:48;8.07;;;6.70;;
30934;SDS011;51033;42.648;23.292;2022-09-09T08:24:14;8.65;;;6.38;;
30934;SDS011;51033;42.648;23.292;2022-09-09T08:26:44;8.15;;;6.38;;
30934;SDS011;51033;42.648;23.292;2022-09-09T08:29:14;11.18;;;7.25;;
30934;SDS011;51033;42.648;23.292;2022-09-09T08:31:44;7.57;;;6.07;;
30934;SDS011;51033;42.648;23.292;2022-09-09T08:34:19;9.77;;;6.85;;
30934;SDS011;51033;42.648;23.292;2022-09-09T08:36:45;9.90;;;5.68;;
30934;SDS011;51033;42.648;23.292;2022-09-09T08:39:13;7.20;;;5.88;;
30934;SDS011;51033;42.648;23.292;2022-09-09T08:52:32;7.53;;;6.55;;
30934;SDS011;51033;42.648;23.292;2022-09-09T08:55:56;11.03;;;5.47;;
30934;SDS011;51033;42.648;23.292;2022-09-09T08:58:20;8.30;;;5.40;;
30934;SDS011;51033;42.648;23.292;2022-09-09T09:00:56;9.52;;;6.00;;
30934;SDS011;51033;42.648;23.292;2022-09-09T09:03:28;8.20;;;5.38;;
30934;SDS011;51033;42.648;23.292;2022-09-09T09:11:38;8.83;;;6.03;;
30934;SDS011;51033;42.648;23.292;2022-09-09T09:14:20;6.65;;;5.25;;
30934;SDS011;51033;42.648;23.292;2022-09-09T09:16:51;6.50;;;5.35;;
30934;SDS011;51033;42.648;23.292;2022-09-09T09:19:29;19.17;;;7.93;;
30934;SDS011;51033;42.648;23.292;2022-09-09T09:24:51;10.50;;;5.43;;
30934;SDS011;51033;42.648;23.292;2022-09-09T09:27:38;5.95;;;5.05;;
30934;SDS011;51033;42.648;23.292;2022-09-09T09:30:15;13.10;;;5.50;;
30934;SDS011;51033;42.648;23.292;2022-09-09T09:33:06;6.22;;;5.45;;
30934;SDS011;51033;42.648;23.292;2022-09-09T09:36:06;7.95;;;5.40;;
30934;SDS011;51033;42.648;23.292;2022-09-09T09:38:33;7.03;;;5.00;;
30934;SDS011;51033;42.648;23.292;2022-09-09T09:41:00;7.72;;;5.53;;
30934;SDS011;51033;42.648;23.292;2022-09-09T09:43:52;7.93;;;4.85;;
30934;SDS011;51033;42.648;23.292;2022-09-09T09:46:19;6.55;;;5.10;;
30934;SDS011;51033;42.648;23.292;2022-09-09T09:49:03;5.32;;;4.70;;
30934;SDS011;51033;42.648;23.292;2022-09-09T09:51:34;10.50;;;5.50;;
30934;SDS011;51033;42.648;23.292;2022-09-09T09:56:39;7.60;;;4.90;;
30934;SDS011;51033;42.648;23.292;2022-09-09T09:59:11;7.13;;;4.82;;
30934;SDS011;51033;42.648;23.292;2022-09-09T10:01:50;6.32;;;5.22;;
30934;SDS011;51033;42.648;23.292;2022-09-09T10:04:17;6.38;;;4.18;;
30934;SDS011;51033;42.648;23.292;2022-09-09T10:06:45;5.10;;;4.63;;
30934;SDS011;51033;42.648;23.292;2022-09-09T10:09:44;7.68;;;4.88;;
30934;SDS011;51033;42.648;23.292;2022-09-09T10:21:01;7.97;;;5.60;;
30934;SDS011;51033;42.648;23.292;2022-09-09T10:23:23;5.20;;;4.50;;
30934;SDS011;51033;42.648;23.292;2022-09-09T10:25:56;5.45;;;4.07;;
30934;SDS011;51033;42.648;23.292;2022-09-09T10:28:37;5.75;;;4.65;;
30934;SDS011;51033;42.648;23.292;2022-09-09T10:48:22;7.20;;;4.75;;
30934;SDS011;51033;42.648;23.292;2022-09-09T10:51:21;5.50;;;4.93;;
30934;SDS011;51033;42.648;23.292;2022-09-09T10:53:57;7.55;;;5.05;;
30934;SDS011;51033;42.648;23.292;2022-09-09T10:56:49;6.38;;;5.55;;
30934;SDS011;51033;42.648;23.292;2022-09-09T10:59:20;6.70;;;5.57;;
30934;SDS011;51033;42.648;23.292;2022-09-09T11:02:28;7.68;;;4.88;;
30934;SDS011;51033;42.648;23.292;2022-09-09T11:05:35;7.60;;;4.90;;
30934;SDS011;51033;42.648;23.292;2022-09-09T11:10:21;7.40;;;4.88;;
30934;SDS011;51033;42.648;23.292;2022-09-09T11:12:54;5.78;;;4.43;;
30934;SDS011;51033;42.648;23.292;2022-09-09T11:15:28;7.40;;;4.90;;
30934;SDS011;51033;42.648;23.292;2022-09-09T11:18:01;5.30;;;4.70;;
30934;SDS011;51033;42.648;23.292;2022-09-09T11:20:29;6.43;;;5.35;;
30934;SDS011;51033;42.648;23.292;2022-09-09T11:25:29;8.55;;;6.05;;
30934;SDS011;51033;42.648;23.292;2022-09-09T11:44:39;8.50;;;5.95;;
30934;SDS011;51033;42.648;23.292;2022-09-09T11:47:16;11.40;;;6.55;;
30934;SDS011;51033;42.648;23.292;2022-09-09T11:49:47;7.50;;;5.88;;
30934;SDS011;51033;42.648;23.292;2022-09-09T11:52:21;8.45;;;6.20;;
30934;SDS011;51033;42.648;23.292;2022-09-09T11:54:48;7.22;;;5.47;;
30934;SDS011;51033;42.648;23.292;2022-09-09T11:57:34;16.33;;;7.43;;
30934;SDS011;51033;42.648;23.292;2022-09-09T12:00:01;11.70;;;6.25;;
30934;SDS011;51033;42.648;23.292;2022-09-09T12:02:28;10.45;;;6.63;;
30934;SDS011;51033;42.648;23.292;2022-09-09T12:05:10;8.18;;;6.28;;
30934;SDS011;51033;42.648;23.292;2022-09-09T12:07:40;8.55;;;6.35;;
30934;SDS011;51033;42.648;23.292;2022-09-09T12:12:54;6.85;;;6.07;;
30934;SDS011;51033;42.648;23.292;2022-09-09T12:15:21;11.45;;;7.15;;
30934;SDS011;51033;42.648;23.292;2022-09-09T12:17:50;11.05;;;7.35;;
30934;SDS011;51033;42.648;23.292;2022-09-09T12:20:22;15.35;;;7.95;;
30934;SDS011;51033;42.648;23.292;2022-09-09T12:28:20;9.45;;;6.78;;
30934;SDS011;51033;42.648;23.292;2022-09-09T12:30:59;9.27;;;6.75;;
30934;SDS011;51033;42.648;23.292;2022-09-09T12:33:34;7.55;;;6.75;;
30934;SDS011;51033;42.648;23.292;2022-09-09T12:36:02;7.38;;;6.43;;
30934;SDS011;51033;42.648;23.292;2022-09-09T12:38:39;8.32;;;7.00;;
30934;SDS011;51033;42.648;23.292;2022-09-09T12:41:15;7.05;;;6.35;;
30934;SDS011;51033;42.648;23.292;2022-09-09T14:13:42;8.48;;;6.38;;
30934;SDS011;51033;42.648;23.292;2022-09-09T14:16:08;9.40;;;6.43;;
30934;SDS011;51033;42.648;23.292;2022-09-09T14:18:34;16.55;;;6.63;;
30934;SDS011;51033;42.648;23.292;2022-09-09T14:21:00;8.10;;;6.18;;
30934;SDS011;51033;42.648;23.292;2022-09-09T14:23:27;13.18;;;6.13;;
30934;SDS011;51033;42.648;23.292;2022-09-09T14:25:54;11.40;;;7.22;;
30934;SDS011;51033;42.648;23.292;2022-09-09T14:28:19;11.07;;;6.93;;
30934;SDS011;51033;42.648;23.292;2022-09-09T14:30:45;8.63;;;7.03;;
30934;SDS011;51033;42.648;23.292;2022-09-09T14:33:12;12.93;;;7.38;;
30934;SDS011;51033;42.648;23.292;2022-09-09T14:35:40;7.10;;;5.97;;
30934;SDS011;51033;42.648;23.292;2022-09-09T14:38:07;11.73;;;7.45;;
30934;SDS011;51033;42.648;23.292;2022-09-09T14:40:34;8.63;;;5.85;;
30934;SDS011;51033;42.648;23.292;2022-09-09T14:43:01;10.48;;;6.47;;
30934;SDS011;51033;42.648;23.292;2022-09-09T14:45:27;6.78;;;6.03;;
30934;SDS011;51033;42.648;23.292;2022-09-09T14:47:53;12.05;;;6.25;;
30934;SDS011;51033;42.648;23.292;2022-09-09T14:50:19;9.85;;;6.45;;
30934;SDS011;51033;42.648;23.292;2022-09-09T14:52:46;9.10;;;6.38;;
30934;SDS011;51033;42.648;23.292;2022-09-09T14:55:12;9.85;;;6.70;;
30934;SDS011;51033;42.648;23.292;2022-09-09T14:57:37;8.65;;;5.78;;
30934;SDS011;51033;42.648;23.292;2022-09-09T15:00:04;10.48;;;6.95;;
30934;SDS011;51033;42.648;23.292;2022-09-09T15:02:30;10.00;;;6.25;;
30934;SDS011;51033;42.648;23.292;2022-09-09T15:04:56;9.45;;;6.25;;
30934;SDS011;51033;42.648;23.292;2022-09-09T15:07:25;6.43;;;5.80;;
30934;SDS011;51033;42.648;23.292;2022-09-09T15:09:52;7.80;;;6.70;;
30934;SDS011;51033;42.648;23.292;2022-09-09T15:12:18;17.05;;;7.32;;
30934;SDS011;51033;42.648;23.292;2022-09-09T15:14:46;10.30;;;6.80;;
30934;SDS011;51033;42.648;23.292;2022-09-09T15:17:12;14.23;;;7.60;;
30934;SDS011;51033;42.648;23.292;2022-09-09T15:19:38;12.93;;;7.13;;
30934;SDS011;51033;42.648;23.292;2022-09-09T15:22:04;9.85;;;6.05;;
30934;SDS011;51033;42.648;23.292;2022-09-09T15:24:33;10.45;;;6.35;;
30934;SDS011;51033;42.648;23.292;2022-09-09T15:27:00;9.00;;;6.97;;
30934;SDS011;51033;42.648;23.292;2022-09-09T15:29:26;10.18;;;7.30;;
30934;SDS011;51033;42.648;23.292;2022-09-09T15:31:53;9.95;;;6.85;;
30934;SDS011;51033;42.648;23.292;2022-09-09T15:34:19;7.05;;;5.88;;
30934;SDS011;51033;42.648;23.292;2022-09-09T15:36:45;11.20;;;7.43;;
30934;SDS011;51033;42.648;23.292;2022-09-09T15:39:11;12.85;;;6.90;;
30934;SDS011;51033;42.648;23.292;2022-09-09T15:41:40;16.00;;;7.15;;
30934;SDS011;51033;42.648;23.292;2022-09-09T15:44:09;9.55;;;6.57;;
30934;SDS011;51033;42.648;23.292;2022-09-09T15:46:43;9.18;;;6.72;;
30934;SDS011;51033;42.648;23.292;2022-09-09T15:49:20;9.38;;;6.65;;
30934;SDS011;51033;42.648;23.292;2022-09-09T15:51:59;7.38;;;6.38;;
30934;SDS011;51033;42.648;23.292;2022-09-09T15:54:30;11.98;;;6.20;;
30934;SDS011;51033;42.648;23.292;2022-09-09T15:56:58;13.50;;;6.65;;
30934;SDS011;51033;42.648;23.292;2022-09-09T15:59:26;9.20;;;6.40;;
30934;SDS011;51033;42.648;23.292;2022-09-09T16:01:53;15.07;;;6.20;;
30934;SDS011;51033;42.648;23.292;2022-09-09T16:04:19;8.77;;;5.95;;
30934;SDS011;51033;42.648;23.292;2022-09-09T16:06:56;10.32;;;6.85;;
30934;SDS011;51033;42.648;23.292;2022-09-09T16:09:24;7.88;;;5.93;;
30934;SDS011;51033;42.648;23.292;2022-09-09T16:11:50;6.93;;;6.05;;
30934;SDS011;51033;42.648;23.292;2022-09-09T16:14:15;8.13;;;6.72;;
30934;SDS011;51033;42.648;23.292;2022-09-09T16:16:41;16.42;;;6.82;;
30934;SDS011;51033;42.648;23.292;2022-09-09T16:19:08;11.35;;;5.85;;
30934;SDS011;51033;42.648;23.292;2022-09-09T16:21:37;10.15;;;6.45;;
30934;SDS011;51033;42.648;23.292;2022-09-09T16:24:13;16.48;;;6.43;;
30934;SDS011;51033;42.648;23.292;2022-09-09T16:26:42;11.05;;;6.03;;
30934;SDS011;51033;42.648;23.292;2022-09-09T16:29:14;10.57;;;5.53;;
30934;SDS011;51033;42.648;23.292;2022-09-09T16:31:42;12.73;;;6.35;;
30934;SDS011;51033;42.648;23.292;2022-09-09T16:34:08;9.60;;;5.78;;
30934;SDS011;51033;42.648;23.292;2022-09-09T16:36:35;8.23;;;5.72;;
30934;SDS011;51033;42.648;23.292;2022-09-09T16:39:03;7.28;;;5.95;;
30934;SDS011;51033;42.648;23.292;2022-09-09T16:41:31;10.02;;;6.50;;
30934;SDS011;51033;42.648;23.292;2022-09-09T16:43:59;10.07;;;6.13;;
30934;SDS011;51033;42.648;23.292;2022-09-09T16:46:28;8.43;;;6.07;;
30934;SDS011;51033;42.648;23.292;2022-09-09T16:48:55;12.85;;;6.65;;
30934;SDS011;51033;42.648;23.292;2022-09-09T16:51:28;12.13;;;6.60;;
30934;SDS011;51033;42.648;23.292;2022-09-09T16:53:59;12.88;;;6.68;;
30934;SDS011;51033;42.648;23.292;2022-09-09T16:56:27;14.93;;;6.85;;
30934;SDS011;51033;42.648;23.292;2022-09-09T16:58:59;10.88;;;6.82;;
30934;SDS011;51033;42.648;23.292;2022-09-09T17:01:26;22.05;;;6.75;;
30934;SDS011;51033;42.648;23.292;2022-09-09T17:03:57;17.60;;;7.30;;
30934;SDS011;51033;42.648;23.292;2022-09-09T17:06:25;11.95;;;6.88;;
30934;SDS011;51033;42.648;23.292;2022-09-09T17:08:54;12.10;;;7.38;;
30934;SDS011;51033;42.648;23.292;2022-09-09T17:11:23;12.40;;;7.00;;
30934;SDS011;51033;42.648;23.292;2022-09-09T17:13:50;12.98;;;8.35;;
30934;SDS011;51033;42.648;23.292;2022-09-09T17:16:17;11.13;;;7.43;;
30934;SDS011;51033;42.648;23.292;2022-09-09T17:18:48;10.93;;;6.32;;
30934;SDS011;51033;42.648;23.292;2022-09-09T17:21:18;15.32;;;8.13;;
30934;SDS011;51033;42.648;23.292;2022-09-09T17:23:45;12.38;;;7.22;;
30934;SDS011;51033;42.648;23.292;2022-09-09T17:26:13;12.05;;;6.82;;
30934;SDS011;51033;42.648;23.292;2022-09-09T17:28:40;11.27;;;7.78;;
30934;SDS011;51033;42.648;23.292;2022-09-09T17:31:08;12.65;;;7.43;;
30934;SDS011;51033;42.648;23.292;2022-09-09T17:33:35;14.95;;;7.85;;
30934;SDS011;51033;42.648;23.292;2022-09-09T17:38:38;16.75;;;6.45;;
30934;SDS011;51033;42.648;23.292;2022-09-09T17:41:04;10.30;;;6.13;;
30934;SDS011;51033;42.648;23.292;2022-09-09T17:43:35;14.07;;;6.90;;
30934;SDS011;51033;42.648;23.292;2022-09-09T17:48:35;13.02;;;6.68;;
30934;SDS011;51033;42.648;23.292;2022-09-09T17:51:02;11.70;;;6.25;;
30934;SDS011;51033;42.648;23.292;2022-09-09T17:53:36;11.32;;;6.65;;
30934;SDS011;51033;42.648;23.292;2022-09-09T17:56:07;11.38;;;5.78;;
30934;SDS011;51033;42.648;23.292;2022-09-09T17:58:34;9.60;;;6.10;;
30934;SDS011;51033;42.648;23.292;2022-09-09T18:01:04;10.70;;;6.65;;
30934;SDS011;51033;42.648;23.292;2022-09-09T18:03:33;12.40;;;7.10;;
30934;SDS011;51033;42.648;23.292;2022-09-09T18:06:01;15.38;;;7.28;;
30934;SDS011;51033;42.648;23.292;2022-09-09T18:08:28;13.98;;;6.90;;
30934;SDS011;51033;42.648;23.292;2022-09-09T18:10:53;12.52;;;7.00;;
30934;SDS011;51033;42.648;23.292;2022-09-09T18:13:20;7.32;;;5.60;;
30934;SDS011;51033;42.648;23.292;2022-09-09T18:15:46;9.77;;;7.15;;
30934;SDS011;51033;42.648;23.292;2022-09-09T18:18:11;9.95;;;6.07;;
30934;SDS011;51033;42.648;23.292;2022-09-09T18:20:38;7.90;;;5.88;;
30934;SDS011;51033;42.648;23.292;2022-09-09T18:23:04;14.32;;;7.07;;
30934;SDS011;51033;42.648;23.292;2022-09-09T18:25:30;11.45;;;6.95;;
30934;SDS011;51033;42.648;23.292;2022-09-09T18:27:55;9.15;;;6.00;;
30934;SDS011;51033;42.648;23.292;2022-09-09T18:30:22;8.07;;;6.38;;
30934;SDS011;51033;42.648;23.292;2022-09-09T18:32:49;8.13;;;5.93;;
30934;SDS011;51033;42.648;23.292;2022-09-09T18:35:16;9.05;;;6.78;;